sensor_id;sensor_type;location;lat;lon;timestamp;P1;durP1;ratioP1;P2;durP2;ratioP2
64094;SDS011;50353;51.420;5.682;2023-06-26T00:01:10;7.88;;;7.07;;
64094;SDS011;50353;51.420;5.682;2023-06-26T00:03:35;10.27;;;7.40;;
64094;SDS011;50353;51.420;5.682;2023-06-26T00:06:01;10.63;;;7.00;;
64094;SDS011;50353;51.420;5.682;2023-06-26T00:08:27;8.75;;;6.97;;
64094;SDS011;50353;51.420;5.682;2023-06-26T00:10:53;9.23;;;7.53;;
64094;SDS011;50353;51.420;5.682;2023-06-26T00:13:18;9.63;;;6.78;;
64094;SDS011;50353;51.420;5.682;2023-06-26T00:15:43;9.85;;;7.30;;
64094;SDS011;50353;51.420;5.682;2023-06-26T00:18:09;9.20;;;7.78;;
64094;SDS011;50353;51.420;5.682;2023-06-26T00:20:34;9.27;;;7.93;;
64094;SDS011;50353;51.420;5.682;2023-06-26T00:22:59;11.00;;;7.87;;
64094;SDS011;50353;51.420;5.682;2023-06-26T00:25:25;11.50;;;8.05;;
64094;SDS011;50353;51.420;5.682;2023-06-26T00:27:50;9.07;;;7.82;;
64094;SDS011;50353;51.420;5.682;2023-06-26T00:30:15;8.70;;;7.23;;
64094;SDS011;50353;51.420;5.682;2023-06-26T00:32:41;9.13;;;7.43;;
64094;SDS011;50353;51.420;5.682;2023-06-26T00:35:06;10.18;;;8.10;;
64094;SDS011;50353;51.420;5.682;2023-06-26T00:37:31;7.82;;;6.95;;
64094;SDS011;50353;51.420;5.682;2023-06-26T00:39:57;9.80;;;6.57;;
64094;SDS011;50353;51.420;5.682;2023-06-26T00:42:22;7.35;;;6.38;;
64094;SDS011;50353;51.420;5.682;2023-06-26T00:44:48;9.00;;;6.30;;
64094;SDS011;50353;51.420;5.682;2023-06-26T00:47:14;8.23;;;6.43;;
64094;SDS011;50353;51.420;5.682;2023-06-26T00:49:40;9.15;;;6.32;;
64094;SDS011;50353;51.420;5.682;2023-06-26T00:52:06;9.82;;;6.88;;
64094;SDS011;50353;51.420;5.682;2023-06-26T00:54:31;7.40;;;6.15;;
64094;SDS011;50353;51.420;5.682;2023-06-26T00:56:57;8.07;;;6.20;;
64094;SDS011;50353;51.420;5.682;2023-06-26T00:59:22;8.73;;;5.88;;
64094;SDS011;50353;51.420;5.682;2023-06-26T01:01:48;7.50;;;5.20;;
64094;SDS011;50353;51.420;5.682;2023-06-26T01:04:13;7.45;;;6.00;;
64094;SDS011;50353;51.420;5.682;2023-06-26T01:06:42;8.18;;;6.38;;
64094;SDS011;50353;51.420;5.682;2023-06-26T01:09:13;8.35;;;6.28;;
64094;SDS011;50353;51.420;5.682;2023-06-26T01:11:45;7.65;;;5.57;;
64094;SDS011;50353;51.420;5.682;2023-06-26T01:14:11;10.55;;;6.50;;
64094;SDS011;50353;51.420;5.682;2023-06-26T01:16:37;7.30;;;5.18;;
64094;SDS011;50353;51.420;5.682;2023-06-26T01:19:06;6.63;;;4.47;;
64094;SDS011;50353;51.420;5.682;2023-06-26T01:21:36;4.93;;;4.18;;
64094;SDS011;50353;51.420;5.682;2023-06-26T01:24:16;6.07;;;4.60;;
64094;SDS011;50353;51.420;5.682;2023-06-26T01:26:45;4.95;;;4.30;;
64094;SDS011;50353;51.420;5.682;2023-06-26T01:29:13;5.65;;;4.20;;
64094;SDS011;50353;51.420;5.682;2023-06-26T01:31:40;4.75;;;3.92;;
64094;SDS011;50353;51.420;5.682;2023-06-26T01:34:06;6.03;;;4.75;;
64094;SDS011;50353;51.420;5.682;2023-06-26T01:36:32;7.32;;;4.75;;
64094;SDS011;50353;51.420;5.682;2023-06-26T01:38:57;6.30;;;4.30;;
64094;SDS011;50353;51.420;5.682;2023-06-26T01:41:22;4.82;;;3.55;;
64094;SDS011;50353;51.420;5.682;2023-06-26T01:46:38;6.13;;;4.07;;
64094;SDS011;50353;51.420;5.682;2023-06-26T01:51:35;5.93;;;4.10;;
64094;SDS011;50353;51.420;5.682;2023-06-26T01:54:06;6.43;;;3.75;;
64094;SDS011;50353;51.420;5.682;2023-06-26T01:56:38;4.90;;;3.40;;
64094;SDS011;50353;51.420;5.682;2023-06-26T01:59:05;4.25;;;2.90;;
64094;SDS011;50353;51.420;5.682;2023-06-26T02:01:32;4.18;;;3.47;;
64094;SDS011;50353;51.420;5.682;2023-06-26T02:03:58;3.25;;;2.47;;
64094;SDS011;50353;51.420;5.682;2023-06-26T02:06:24;5.35;;;2.38;;
64094;SDS011;50353;51.420;5.682;2023-06-26T02:08:49;4.80;;;2.83;;
64094;SDS011;50353;51.420;5.682;2023-06-26T02:11:15;4.57;;;3.00;;
64094;SDS011;50353;51.420;5.682;2023-06-26T02:13:40;4.18;;;2.85;;
64094;SDS011;50353;51.420;5.682;2023-06-26T02:16:05;5.67;;;3.30;;
64094;SDS011;50353;51.420;5.682;2023-06-26T02:18:30;6.30;;;3.20;;
64094;SDS011;50353;51.420;5.682;2023-06-26T02:20:56;4.63;;;2.80;;
64094;SDS011;50353;51.420;5.682;2023-06-26T02:23:21;4.00;;;2.83;;
64094;SDS011;50353;51.420;5.682;2023-06-26T02:25:46;5.37;;;2.97;;
64094;SDS011;50353;51.420;5.682;2023-06-26T02:28:11;4.13;;;2.13;;
64094;SDS011;50353;51.420;5.682;2023-06-26T02:30:37;4.93;;;2.80;;
64094;SDS011;50353;51.420;5.682;2023-06-26T02:33:02;4.47;;;2.77;;
64094;SDS011;50353;51.420;5.682;2023-06-26T02:35:27;5.68;;;2.60;;
64094;SDS011;50353;51.420;5.682;2023-06-26T02:37:52;4.20;;;2.30;;
64094;SDS011;50353;51.420;5.682;2023-06-26T02:40:18;5.83;;;2.40;;
64094;SDS011;50353;51.420;5.682;2023-06-26T02:42:43;4.17;;;2.17;;
64094;SDS011;50353;51.420;5.682;2023-06-26T02:45:08;6.00;;;3.20;;
64094;SDS011;50353;51.420;5.682;2023-06-26T02:47:34;5.35;;;2.58;;
64094;SDS011;50353;51.420;5.682;2023-06-26T02:49:59;3.63;;;2.35;;
64094;SDS011;50353;51.420;5.682;2023-06-26T02:52:25;3.97;;;2.60;;
64094;SDS011;50353;51.420;5.682;2023-06-26T02:54:50;3.90;;;2.38;;
64094;SDS011;50353;51.420;5.682;2023-06-26T02:57:15;6.28;;;3.00;;
64094;SDS011;50353;51.420;5.682;2023-06-26T02:59:42;6.40;;;2.92;;
64094;SDS011;50353;51.420;5.682;2023-06-26T03:02:07;3.97;;;2.40;;
64094;SDS011;50353;51.420;5.682;2023-06-26T03:04:32;6.43;;;2.50;;
64094;SDS011;50353;51.420;5.682;2023-06-26T03:07:01;5.00;;;2.70;;
64094;SDS011;50353;51.420;5.682;2023-06-26T03:09:27;6.50;;;2.65;;
64094;SDS011;50353;51.420;5.682;2023-06-26T03:11:52;4.20;;;2.43;;
64094;SDS011;50353;51.420;5.682;2023-06-26T03:14:18;5.05;;;2.35;;
64094;SDS011;50353;51.420;5.682;2023-06-26T03:16:43;5.20;;;2.57;;
64094;SDS011;50353;51.420;5.682;2023-06-26T03:19:08;7.47;;;2.97;;
64094;SDS011;50353;51.420;5.682;2023-06-26T03:21:34;3.53;;;2.30;;
64094;SDS011;50353;51.420;5.682;2023-06-26T03:23:59;4.40;;;2.22;;
64094;SDS011;50353;51.420;5.682;2023-06-26T03:26:24;4.32;;;2.60;;
64094;SDS011;50353;51.420;5.682;2023-06-26T03:28:52;3.58;;;2.03;;
64094;SDS011;50353;51.420;5.682;2023-06-26T03:31:18;6.00;;;2.28;;
64094;SDS011;50353;51.420;5.682;2023-06-26T03:33:43;4.57;;;2.17;;
64094;SDS011;50353;51.420;5.682;2023-06-26T03:36:09;4.10;;;2.33;;
64094;SDS011;50353;51.420;5.682;2023-06-26T03:38:34;4.23;;;2.40;;
64094;SDS011;50353;51.420;5.682;2023-06-26T03:40:59;5.10;;;2.20;;
64094;SDS011;50353;51.420;5.682;2023-06-26T03:43:25;4.15;;;2.13;;
64094;SDS011;50353;51.420;5.682;2023-06-26T03:45:50;6.47;;;2.30;;
64094;SDS011;50353;51.420;5.682;2023-06-26T03:48:15;3.47;;;2.10;;
64094;SDS011;50353;51.420;5.682;2023-06-26T03:50:40;4.83;;;2.37;;
64094;SDS011;50353;51.420;5.682;2023-06-26T03:53:06;6.05;;;2.33;;
64094;SDS011;50353;51.420;5.682;2023-06-26T03:55:31;3.77;;;1.70;;
64094;SDS011;50353;51.420;5.682;2023-06-26T03:57:56;3.40;;;1.47;;
64094;SDS011;50353;51.420;5.682;2023-06-26T04:00:21;7.80;;;2.13;;
64094;SDS011;50353;51.420;5.682;2023-06-26T04:02:47;6.77;;;2.40;;
64094;SDS011;50353;51.420;5.682;2023-06-26T04:05:12;5.07;;;2.45;;
64094;SDS011;50353;51.420;5.682;2023-06-26T04:07:37;7.13;;;2.53;;
64094;SDS011;50353;51.420;5.682;2023-06-26T04:10:03;5.50;;;1.98;;
64094;SDS011;50353;51.420;5.682;2023-06-26T04:12:29;5.95;;;2.33;;
64094;SDS011;50353;51.420;5.682;2023-06-26T04:14:54;5.22;;;2.33;;
64094;SDS011;50353;51.420;5.682;2023-06-26T04:17:19;8.52;;;2.80;;
64094;SDS011;50353;51.420;5.682;2023-06-26T04:19:45;4.90;;;1.85;;
64094;SDS011;50353;51.420;5.682;2023-06-26T04:22:10;5.20;;;2.10;;
64094;SDS011;50353;51.420;5.682;2023-06-26T04:24:36;7.72;;;2.63;;
64094;SDS011;50353;51.420;5.682;2023-06-26T04:27:01;6.83;;;2.07;;
64094;SDS011;50353;51.420;5.682;2023-06-26T04:29:26;4.82;;;2.17;;
64094;SDS011;50353;51.420;5.682;2023-06-26T04:31:52;4.93;;;2.10;;
64094;SDS011;50353;51.420;5.682;2023-06-26T04:34:23;6.95;;;2.30;;
64094;SDS011;50353;51.420;5.682;2023-06-26T04:36:51;4.93;;;2.20;;
64094;SDS011;50353;51.420;5.682;2023-06-26T04:39:16;5.75;;;2.30;;
64094;SDS011;50353;51.420;5.682;2023-06-26T04:41:42;4.40;;;2.47;;
64094;SDS011;50353;51.420;5.682;2023-06-26T04:44:07;5.57;;;2.10;;
64094;SDS011;50353;51.420;5.682;2023-06-26T04:46:33;6.25;;;2.55;;
64094;SDS011;50353;51.420;5.682;2023-06-26T04:48:58;7.10;;;3.13;;
64094;SDS011;50353;51.420;5.682;2023-06-26T04:51:26;5.72;;;2.90;;
64094;SDS011;50353;51.420;5.682;2023-06-26T04:53:52;5.90;;;2.35;;
64094;SDS011;50353;51.420;5.682;2023-06-26T04:56:17;7.68;;;2.88;;
64094;SDS011;50353;51.420;5.682;2023-06-26T04:58:42;6.35;;;2.38;;
64094;SDS011;50353;51.420;5.682;2023-06-26T05:01:08;5.73;;;2.77;;
64094;SDS011;50353;51.420;5.682;2023-06-26T05:03:33;6.07;;;2.43;;
64094;SDS011;50353;51.420;5.682;2023-06-26T05:05:59;8.57;;;2.65;;
64094;SDS011;50353;51.420;5.682;2023-06-26T05:08:24;5.45;;;1.90;;
64094;SDS011;50353;51.420;5.682;2023-06-26T05:10:52;5.25;;;2.50;;
64094;SDS011;50353;51.420;5.682;2023-06-26T05:13:24;5.78;;;2.40;;
64094;SDS011;50353;51.420;5.682;2023-06-26T05:15:51;6.97;;;2.80;;
64094;SDS011;50353;51.420;5.682;2023-06-26T05:18:17;8.00;;;2.83;;
64094;SDS011;50353;51.420;5.682;2023-06-26T05:20:42;6.07;;;1.85;;
64094;SDS011;50353;51.420;5.682;2023-06-26T05:23:08;7.70;;;1.92;;
64094;SDS011;50353;51.420;5.682;2023-06-26T05:25:36;7.70;;;2.75;;
64094;SDS011;50353;51.420;5.682;2023-06-26T05:28:02;7.45;;;2.40;;
64094;SDS011;50353;51.420;5.682;2023-06-26T05:30:30;7.25;;;2.45;;
64094;SDS011;50353;51.420;5.682;2023-06-26T05:32:56;6.72;;;2.30;;
64094;SDS011;50353;51.420;5.682;2023-06-26T05:35:24;9.48;;;2.80;;
64094;SDS011;50353;51.420;5.682;2023-06-26T05:37:53;5.60;;;2.22;;
64094;SDS011;50353;51.420;5.682;2023-06-26T05:40:20;9.30;;;2.47;;
64094;SDS011;50353;51.420;5.682;2023-06-26T05:42:45;5.53;;;1.35;;
64094;SDS011;50353;51.420;5.682;2023-06-26T05:45:11;6.65;;;1.83;;
64094;SDS011;50353;51.420;5.682;2023-06-26T05:47:36;9.70;;;2.25;;
64094;SDS011;50353;51.420;5.682;2023-06-26T05:50:02;5.63;;;2.10;;
64094;SDS011;50353;51.420;5.682;2023-06-26T05:52:28;6.43;;;2.17;;
64094;SDS011;50353;51.420;5.682;2023-06-26T05:54:54;7.75;;;1.90;;
64094;SDS011;50353;51.420;5.682;2023-06-26T05:57:23;6.07;;;2.15;;
64094;SDS011;50353;51.420;5.682;2023-06-26T05:59:49;7.10;;;2.20;;
64094;SDS011;50353;51.420;5.682;2023-06-26T06:02:15;8.38;;;2.25;;
64094;SDS011;50353;51.420;5.682;2023-06-26T06:04:40;9.57;;;2.60;;
64094;SDS011;50353;51.420;5.682;2023-06-26T06:07:06;8.17;;;1.90;;
64094;SDS011;50353;51.420;5.682;2023-06-26T06:09:31;4.22;;;1.90;;
64094;SDS011;50353;51.420;5.682;2023-06-26T06:11:56;7.63;;;1.97;;
64094;SDS011;50353;51.420;5.682;2023-06-26T06:14:21;8.60;;;1.90;;
64094;SDS011;50353;51.420;5.682;2023-06-26T06:16:47;7.38;;;2.15;;
64094;SDS011;50353;51.420;5.682;2023-06-26T06:19:12;9.37;;;2.13;;
64094;SDS011;50353;51.420;5.682;2023-06-26T06:21:38;9.80;;;2.38;;
64094;SDS011;50353;51.420;5.682;2023-06-26T06:24:04;6.97;;;1.50;;
64094;SDS011;50353;51.420;5.682;2023-06-26T06:26:30;5.53;;;2.03;;
64094;SDS011;50353;51.420;5.682;2023-06-26T06:28:55;8.30;;;1.90;;
64094;SDS011;50353;51.420;5.682;2023-06-26T06:31:20;5.80;;;1.63;;
64094;SDS011;50353;51.420;5.682;2023-06-26T06:33:45;4.97;;;1.53;;
64094;SDS011;50353;51.420;5.682;2023-06-26T06:36:11;8.27;;;2.87;;
64094;SDS011;50353;51.420;5.682;2023-06-26T06:38:36;5.53;;;1.88;;
64094;SDS011;50353;51.420;5.682;2023-06-26T06:41:01;5.20;;;1.73;;
64094;SDS011;50353;51.420;5.682;2023-06-26T06:43:27;8.90;;;2.08;;
64094;SDS011;50353;51.420;5.682;2023-06-26T06:45:52;6.30;;;1.70;;
64094;SDS011;50353;51.420;5.682;2023-06-26T06:48:17;7.83;;;1.93;;
64094;SDS011;50353;51.420;5.682;2023-06-26T06:50:42;8.23;;;1.80;;
64094;SDS011;50353;51.420;5.682;2023-06-26T06:53:08;6.67;;;1.73;;
64094;SDS011;50353;51.420;5.682;2023-06-26T06:55:33;8.07;;;1.85;;
64094;SDS011;50353;51.420;5.682;2023-06-26T06:57:58;4.03;;;1.65;;
64094;SDS011;50353;51.420;5.682;2023-06-26T07:00:24;6.37;;;1.77;;
64094;SDS011;50353;51.420;5.682;2023-06-26T07:02:49;6.97;;;1.60;;
64094;SDS011;50353;51.420;5.682;2023-06-26T07:05:14;12.50;;;6.57;;
64094;SDS011;50353;51.420;5.682;2023-06-26T07:07:41;5.82;;;1.48;;
64094;SDS011;50353;51.420;5.682;2023-06-26T07:10:07;6.63;;;1.80;;
64094;SDS011;50353;51.420;5.682;2023-06-26T07:12:34;6.60;;;1.50;;
64094;SDS011;50353;51.420;5.682;2023-06-26T07:15:01;4.43;;;1.30;;
64094;SDS011;50353;51.420;5.682;2023-06-26T07:17:27;6.40;;;1.67;;
64094;SDS011;50353;51.420;5.682;2023-06-26T07:19:53;4.53;;;1.58;;
64094;SDS011;50353;51.420;5.682;2023-06-26T07:22:18;7.27;;;1.80;;
64094;SDS011;50353;51.420;5.682;2023-06-26T07:24:47;7.03;;;2.35;;
64094;SDS011;50353;51.420;5.682;2023-06-26T07:27:14;6.53;;;2.00;;
64094;SDS011;50353;51.420;5.682;2023-06-26T07:29:39;5.72;;;1.83;;
64094;SDS011;50353;51.420;5.682;2023-06-26T07:32:05;6.20;;;1.30;;
64094;SDS011;50353;51.420;5.682;2023-06-26T07:34:30;32.50;;;16.60;;
64094;SDS011;50353;51.420;5.682;2023-06-26T07:36:56;6.40;;;1.90;;
64094;SDS011;50353;51.420;5.682;2023-06-26T07:39:21;7.03;;;2.85;;
64094;SDS011;50353;51.420;5.682;2023-06-26T07:41:46;7.90;;;2.00;;
64094;SDS011;50353;51.420;5.682;2023-06-26T07:44:11;7.43;;;1.50;;
64094;SDS011;50353;51.420;5.682;2023-06-26T07:46:37;5.60;;;1.63;;
64094;SDS011;50353;51.420;5.682;2023-06-26T07:49:02;7.90;;;1.50;;
64094;SDS011;50353;51.420;5.682;2023-06-26T07:51:27;7.37;;;2.10;;
64094;SDS011;50353;51.420;5.682;2023-06-26T07:53:53;18.52;;;10.02;;
64094;SDS011;50353;51.420;5.682;2023-06-26T07:56:18;9.43;;;5.43;;
64094;SDS011;50353;51.420;5.682;2023-06-26T07:58:43;6.65;;;2.03;;
64094;SDS011;50353;51.420;5.682;2023-06-26T08:01:09;5.70;;;2.63;;
64094;SDS011;50353;51.420;5.682;2023-06-26T08:03:34;7.77;;;3.57;;
64094;SDS011;50353;51.420;5.682;2023-06-26T08:05:59;7.50;;;2.00;;
64094;SDS011;50353;51.420;5.682;2023-06-26T08:08:25;5.15;;;1.70;;
64094;SDS011;50353;51.420;5.682;2023-06-26T08:10:50;3.10;;;1.53;;
64094;SDS011;50353;51.420;5.682;2023-06-26T08:13:15;7.38;;;2.03;;
64094;SDS011;50353;51.420;5.682;2023-06-26T08:15:41;4.03;;;1.70;;
64094;SDS011;50353;51.420;5.682;2023-06-26T08:18:06;4.10;;;1.50;;
64094;SDS011;50353;51.420;5.682;2023-06-26T08:20:31;6.90;;;1.67;;
64094;SDS011;50353;51.420;5.682;2023-06-26T08:22:57;4.90;;;1.60;;
64094;SDS011;50353;51.420;5.682;2023-06-26T08:25:22;3.67;;;1.55;;
64094;SDS011;50353;51.420;5.682;2023-06-26T08:27:47;3.07;;;1.57;;
64094;SDS011;50353;51.420;5.682;2023-06-26T08:30:13;3.22;;;1.27;;
64094;SDS011;50353;51.420;5.682;2023-06-26T08:32:39;3.47;;;1.38;;
64094;SDS011;50353;51.420;5.682;2023-06-26T08:35:05;5.10;;;1.58;;
64094;SDS011;50353;51.420;5.682;2023-06-26T08:39:57;4.93;;;1.48;;
64094;SDS011;50353;51.420;5.682;2023-06-26T08:42:23;3.13;;;1.10;;
64094;SDS011;50353;51.420;5.682;2023-06-26T08:44:49;3.30;;;1.37;;
64094;SDS011;50353;51.420;5.682;2023-06-26T08:47:14;3.80;;;1.27;;
64094;SDS011;50353;51.420;5.682;2023-06-26T08:49:46;4.55;;;1.17;;
64094;SDS011;50353;51.420;5.682;2023-06-26T08:52:22;3.63;;;1.00;;
64094;SDS011;50353;51.420;5.682;2023-06-26T08:54:52;1.55;;;0.85;;
64094;SDS011;50353;51.420;5.682;2023-06-26T08:57:21;3.45;;;1.05;;
64094;SDS011;50353;51.420;5.682;2023-06-26T08:59:48;2.63;;;0.70;;
64094;SDS011;50353;51.420;5.682;2023-06-26T09:02:14;1.88;;;0.70;;
64094;SDS011;50353;51.420;5.682;2023-06-26T09:04:40;2.83;;;0.80;;
64094;SDS011;50353;51.420;5.682;2023-06-26T09:07:06;4.15;;;0.60;;
64094;SDS011;50353;51.420;5.682;2023-06-26T09:09:32;2.38;;;0.52;;
64094;SDS011;50353;51.420;5.682;2023-06-26T09:11:57;3.30;;;0.77;;
64094;SDS011;50353;51.420;5.682;2023-06-26T09:14:23;1.83;;;0.60;;
64094;SDS011;50353;51.420;5.682;2023-06-26T09:16:49;3.97;;;0.65;;
64094;SDS011;50353;51.420;5.682;2023-06-26T09:19:15;4.55;;;0.80;;
64094;SDS011;50353;51.420;5.682;2023-06-26T09:21:41;1.20;;;0.57;;
64094;SDS011;50353;51.420;5.682;2023-06-26T09:26:37;3.85;;;0.52;;
64094;SDS011;50353;51.420;5.682;2023-06-26T09:29:03;1.67;;;0.52;;
64094;SDS011;50353;51.420;5.682;2023-06-26T09:31:30;2.95;;;0.60;;
64094;SDS011;50353;51.420;5.682;2023-06-26T09:33:57;3.25;;;1.83;;
64094;SDS011;50353;51.420;5.682;2023-06-26T09:36:26;4.10;;;0.60;;
64094;SDS011;50353;51.420;5.682;2023-06-26T09:38:54;3.78;;;0.65;;
64094;SDS011;50353;51.420;5.682;2023-06-26T09:41:20;2.50;;;0.88;;
64094;SDS011;50353;51.420;5.682;2023-06-26T09:43:49;2.67;;;0.63;;
64094;SDS011;50353;51.420;5.682;2023-06-26T09:46:25;3.75;;;0.77;;
64094;SDS011;50353;51.420;5.682;2023-06-26T09:49:07;4.78;;;0.70;;
64094;SDS011;50353;51.420;5.682;2023-06-26T09:51:34;2.38;;;0.50;;
64094;SDS011;50353;51.420;5.682;2023-06-26T09:54:00;2.22;;;0.63;;
64094;SDS011;50353;51.420;5.682;2023-06-26T09:56:27;2.47;;;0.50;;
64094;SDS011;50353;51.420;5.682;2023-06-26T09:58:54;3.08;;;1.02;;
64094;SDS011;50353;51.420;5.682;2023-06-26T10:01:22;2.90;;;0.57;;
64094;SDS011;50353;51.420;5.682;2023-06-26T10:03:47;1.90;;;0.20;;
64094;SDS011;50353;51.420;5.682;2023-06-26T10:06:12;1.83;;;0.55;;
64094;SDS011;50353;51.420;5.682;2023-06-26T10:08:39;1.25;;;0.40;;
64094;SDS011;50353;51.420;5.682;2023-06-26T10:11:07;2.15;;;0.47;;
64094;SDS011;50353;51.420;5.682;2023-06-26T10:13:42;3.08;;;0.50;;
64094;SDS011;50353;51.420;5.682;2023-06-26T10:16:11;2.90;;;0.60;;
64094;SDS011;50353;51.420;5.682;2023-06-26T10:18:38;2.45;;;0.43;;
64094;SDS011;50353;51.420;5.682;2023-06-26T10:21:05;1.92;;;0.73;;
64094;SDS011;50353;51.420;5.682;2023-06-26T10:23:31;1.48;;;0.32;;
64094;SDS011;50353;51.420;5.682;2023-06-26T10:26:00;1.52;;;0.22;;
64094;SDS011;50353;51.420;5.682;2023-06-26T10:28:26;2.35;;;0.40;;
64094;SDS011;50353;51.420;5.682;2023-06-26T10:30:54;2.38;;;0.40;;
64094;SDS011;50353;51.420;5.682;2023-06-26T10:33:20;1.95;;;0.47;;
64094;SDS011;50353;51.420;5.682;2023-06-26T10:35:47;2.58;;;0.40;;
64094;SDS011;50353;51.420;5.682;2023-06-26T10:38:12;2.22;;;0.50;;
64094;SDS011;50353;51.420;5.682;2023-06-26T10:40:45;2.25;;;0.50;;
64094;SDS011;50353;51.420;5.682;2023-06-26T10:43:13;2.65;;;0.35;;
64094;SDS011;50353;51.420;5.682;2023-06-26T10:45:43;1.33;;;0.45;;
64094;SDS011;50353;51.420;5.682;2023-06-26T10:48:17;2.38;;;0.57;;
64094;SDS011;50353;51.420;5.682;2023-06-26T10:50:42;3.20;;;0.40;;
64094;SDS011;50353;51.420;5.682;2023-06-26T10:55:57;1.50;;;0.32;;
64094;SDS011;50353;51.420;5.682;2023-06-26T11:03:40;2.38;;;0.50;;
64094;SDS011;50353;51.420;5.682;2023-06-26T11:06:27;2.25;;;0.63;;
64094;SDS011;50353;51.420;5.682;2023-06-26T11:08:53;2.05;;;0.47;;
64094;SDS011;50353;51.420;5.682;2023-06-26T11:11:54;3.60;;;1.00;;
64094;SDS011;50353;51.420;5.682;2023-06-26T11:14:18;4.07;;;0.43;;
64094;SDS011;50353;51.420;5.682;2023-06-26T11:16:45;0.68;;;0.22;;
64094;SDS011;50353;51.420;5.682;2023-06-26T11:19:10;2.63;;;0.60;;
64094;SDS011;50353;51.420;5.682;2023-06-26T11:21:39;2.17;;;0.38;;
64094;SDS011;50353;51.420;5.682;2023-06-26T11:24:05;3.13;;;0.63;;
64094;SDS011;50353;51.420;5.682;2023-06-26T11:26:38;2.10;;;0.38;;
64094;SDS011;50353;51.420;5.682;2023-06-26T11:29:06;3.08;;;0.40;;
64094;SDS011;50353;51.420;5.682;2023-06-26T11:31:36;2.38;;;0.65;;
64094;SDS011;50353;51.420;5.682;2023-06-26T11:34:05;2.50;;;0.68;;
64094;SDS011;50353;51.420;5.682;2023-06-26T11:36:36;2.50;;;0.30;;
64094;SDS011;50353;51.420;5.682;2023-06-26T11:39:03;4.32;;;0.47;;
64094;SDS011;50353;51.420;5.682;2023-06-26T11:41:31;3.08;;;0.40;;
64094;SDS011;50353;51.420;5.682;2023-06-26T11:44:04;3.97;;;1.08;;
64094;SDS011;50353;51.420;5.682;2023-06-26T11:46:35;3.63;;;0.70;;
64094;SDS011;50353;51.420;5.682;2023-06-26T11:49:04;3.28;;;1.00;;
64094;SDS011;50353;51.420;5.682;2023-06-26T11:51:30;3.83;;;1.65;;
64094;SDS011;50353;51.420;5.682;2023-06-26T11:53:55;2.17;;;0.47;;
64094;SDS011;50353;51.420;5.682;2023-06-26T11:56:21;1.73;;;0.50;;
64094;SDS011;50353;51.420;5.682;2023-06-26T11:59:07;3.00;;;0.63;;
64094;SDS011;50353;51.420;5.682;2023-06-26T12:04:07;2.30;;;0.38;;
64094;SDS011;50353;51.420;5.682;2023-06-26T12:06:35;1.23;;;0.45;;
64094;SDS011;50353;51.420;5.682;2023-06-26T12:09:07;4.95;;;0.60;;
64094;SDS011;50353;51.420;5.682;2023-06-26T12:11:35;3.47;;;0.63;;
64094;SDS011;50353;51.420;5.682;2023-06-26T12:14:06;2.35;;;0.45;;
64094;SDS011;50353;51.420;5.682;2023-06-26T12:16:33;2.60;;;0.57;;
64094;SDS011;50353;51.420;5.682;2023-06-26T12:18:59;2.08;;;0.50;;
64094;SDS011;50353;51.420;5.682;2023-06-26T12:24:09;2.65;;;0.50;;
64094;SDS011;50353;51.420;5.682;2023-06-26T12:26:38;1.70;;;0.52;;
64094;SDS011;50353;51.420;5.682;2023-06-26T12:31:32;4.10;;;0.52;;
64094;SDS011;50353;51.420;5.682;2023-06-26T12:33:58;1.58;;;0.40;;
64094;SDS011;50353;51.420;5.682;2023-06-26T12:36:24;5.45;;;0.77;;
64094;SDS011;50353;51.420;5.682;2023-06-26T12:38:53;2.78;;;0.60;;
64094;SDS011;50353;51.420;5.682;2023-06-26T12:41:19;4.05;;;0.68;;
64094;SDS011;50353;51.420;5.682;2023-06-26T12:43:45;2.67;;;0.40;;
64094;SDS011;50353;51.420;5.682;2023-06-26T12:46:10;2.33;;;0.70;;
64094;SDS011;50353;51.420;5.682;2023-06-26T12:48:36;1.97;;;1.00;;
64094;SDS011;50353;51.420;5.682;2023-06-26T12:51:11;3.55;;;0.50;;
64094;SDS011;50353;51.420;5.682;2023-06-26T12:53:37;2.30;;;0.50;;
64094;SDS011;50353;51.420;5.682;2023-06-26T12:56:04;3.45;;;0.60;;
64094;SDS011;50353;51.420;5.682;2023-06-26T12:58:30;3.20;;;0.85;;
64094;SDS011;50353;51.420;5.682;2023-06-26T13:00:55;1.33;;;0.40;;
64094;SDS011;50353;51.420;5.682;2023-06-26T13:03:22;1.73;;;0.70;;
64094;SDS011;50353;51.420;5.682;2023-06-26T13:05:47;2.88;;;0.50;;
64094;SDS011;50353;51.420;5.682;2023-06-26T13:08:13;1.83;;;0.63;;
64094;SDS011;50353;51.420;5.682;2023-06-26T13:10:38;5.47;;;1.03;;
64094;SDS011;50353;51.420;5.682;2023-06-26T13:13:05;2.00;;;0.65;;
64094;SDS011;50353;51.420;5.682;2023-06-26T13:15:30;1.97;;;0.50;;
64094;SDS011;50353;51.420;5.682;2023-06-26T13:17:55;4.93;;;0.50;;
64094;SDS011;50353;51.420;5.682;2023-06-26T13:20:20;2.90;;;0.73;;
64094;SDS011;50353;51.420;5.682;2023-06-26T13:22:46;2.38;;;0.40;;
64094;SDS011;50353;51.420;5.682;2023-06-26T13:25:11;2.17;;;0.60;;
64094;SDS011;50353;51.420;5.682;2023-06-26T13:27:37;1.73;;;0.43;;
64094;SDS011;50353;51.420;5.682;2023-06-26T13:30:02;4.67;;;0.60;;
64094;SDS011;50353;51.420;5.682;2023-06-26T13:32:27;3.88;;;0.75;;
64094;SDS011;50353;51.420;5.682;2023-06-26T13:34:53;3.00;;;0.80;;
64094;SDS011;50353;51.420;5.682;2023-06-26T13:37:19;1.10;;;0.52;;
64094;SDS011;50353;51.420;5.682;2023-06-26T13:39:44;3.15;;;0.40;;
64094;SDS011;50353;51.420;5.682;2023-06-26T13:42:14;1.42;;;0.73;;
64094;SDS011;50353;51.420;5.682;2023-06-26T13:44:40;1.50;;;0.45;;
64094;SDS011;50353;51.420;5.682;2023-06-26T13:47:05;3.60;;;0.77;;
64094;SDS011;50353;51.420;5.682;2023-06-26T13:49:31;1.52;;;0.35;;
64094;SDS011;50353;51.420;5.682;2023-06-26T13:51:56;3.23;;;0.60;;
64094;SDS011;50353;51.420;5.682;2023-06-26T13:54:21;1.10;;;0.40;;
64094;SDS011;50353;51.420;5.682;2023-06-26T13:56:46;2.50;;;0.43;;
64094;SDS011;50353;51.420;5.682;2023-06-26T13:59:12;2.22;;;0.50;;
64094;SDS011;50353;51.420;5.682;2023-06-26T14:01:37;2.30;;;0.43;;
64094;SDS011;50353;51.420;5.682;2023-06-26T14:04:03;1.52;;;0.50;;
64094;SDS011;50353;51.420;5.682;2023-06-26T14:06:29;4.03;;;0.85;;
64094;SDS011;50353;51.420;5.682;2023-06-26T14:08:55;2.03;;;0.60;;
64094;SDS011;50353;51.420;5.682;2023-06-26T14:11:20;4.20;;;0.80;;
64094;SDS011;50353;51.420;5.682;2023-06-26T14:13:47;2.72;;;0.40;;
64094;SDS011;50353;51.420;5.682;2023-06-26T14:16:12;0.70;;;0.30;;
64094;SDS011;50353;51.420;5.682;2023-06-26T14:18:38;3.13;;;0.80;;
64094;SDS011;50353;51.420;5.682;2023-06-26T14:21:03;1.90;;;0.50;;
64094;SDS011;50353;51.420;5.682;2023-06-26T14:23:29;6.45;;;0.47;;
64094;SDS011;50353;51.420;5.682;2023-06-26T14:25:54;3.55;;;0.35;;
64094;SDS011;50353;51.420;5.682;2023-06-26T14:28:19;3.60;;;0.77;;
64094;SDS011;50353;51.420;5.682;2023-06-26T14:30:44;1.37;;;0.77;;
64094;SDS011;50353;51.420;5.682;2023-06-26T14:33:10;4.38;;;0.60;;
64094;SDS011;50353;51.420;5.682;2023-06-26T14:35:35;1.17;;;0.40;;
64094;SDS011;50353;51.420;5.682;2023-06-26T14:38:00;4.05;;;0.55;;
64094;SDS011;50353;51.420;5.682;2023-06-26T14:40:26;2.85;;;0.73;;
64094;SDS011;50353;51.420;5.682;2023-06-26T14:42:51;4.55;;;0.80;;
64094;SDS011;50353;51.420;5.682;2023-06-26T14:45:18;1.77;;;0.40;;
64094;SDS011;50353;51.420;5.682;2023-06-26T14:47:43;3.35;;;0.43;;
64094;SDS011;50353;51.420;5.682;2023-06-26T14:50:08;1.95;;;0.30;;
64094;SDS011;50353;51.420;5.682;2023-06-26T14:52:34;2.60;;;0.57;;
64094;SDS011;50353;51.420;5.682;2023-06-26T14:54:59;1.42;;;0.52;;
64094;SDS011;50353;51.420;5.682;2023-06-26T14:57:25;2.73;;;0.50;;
64094;SDS011;50353;51.420;5.682;2023-06-26T14:59:50;2.33;;;0.40;;
64094;SDS011;50353;51.420;5.682;2023-06-26T15:02:15;1.83;;;0.30;;
64094;SDS011;50353;51.420;5.682;2023-06-26T15:04:40;3.83;;;0.60;;
64094;SDS011;50353;51.420;5.682;2023-06-26T15:07:06;1.13;;;0.40;;
64094;SDS011;50353;51.420;5.682;2023-06-26T15:09:31;1.77;;;0.60;;